Adolph, Minnesota
Current Conditions -  °F | °C
As of 11:55 AM on Saturday 25 Oct 2014 (Local Time) from KDLH Reporting Station
Clear Clear  
Wind Chill: 55°   Ceiling: Unl
Heat Index: 55°   Visibility: 10mi
Dew Point: 30°   Wind: 23mph
Humidity: 38%   Direction: 280°W
Pressure: 29.91"   Gusts: 32mph
Location:  46.78°N, 92.28°W
Report Text: KDLH 251655Z 28020G28KT 10SM CLR 13/M01 A2991 RMK AO2 PK WND 30032/1609 SLP132 T01281011
Loading
Personal Weather Stations






























Interactive Weather Map New forecast layout! Learn more

10-Day Weather Forecast

Advertisements
Track Severe Weather on mobile